Terminal Aerodrome Forecast
Issued by NWS Jackson, MS

Home | Current Version | Previous Version | Text Only | Print | Product List | Glossary On
Versions: 1 2 3 4 5 6 7 8 9 10 11 12 13 14
000
FTUS44 KMEG 220530
TAFTUP
TAF
KTUP 220530Z 2206/2306 VRB03KT P6SM FEW250
     FM221600 23006KT P6SM SCT040 SCT250
     FM222300 28005KT P6SM SCT050 BKN250
     FM230400 VRB05KT P6SM VCSH BKN050 OVC150
      TEMPO 2304/2306 6SM -SHRA BKN040=

USA.gov is the U.S. government's official web portal to all federal, state and local government web resources and services.